Time;durP1;ratioP1;P1;durP2;ratioP2;P2;SDS_P1;SDS_P2;PMS_P1;PMS_P2;Temp;Humidity;BMP_temperature;BMP_pressure;BME280_temperature;BME280_humidity;BME280_pressure;Samples;Min_cycle;Max_cycle;Signal;HPM_P1;HPM_P2
2022/03/05 00:00:43;;;;;;;25.50;15.90;;;;;;;-0.53;89.01;101988.78;4991643;28;20494;-59
2022/03/05 00:03:09;;;;;;;25.67;16.10;;;;;;;-0.55;90.00;101988.66;4992101;28;20180;-59
2022/03/05 00:05:34;;;;;;;23.27;15.07;;;;;;;-0.58;89.10;101995.09;4992118;28;20053;-61
2022/03/05 00:08:00;;;;;;;25.27;16.87;;;;;;;-0.60;90.08;101992.41;4991972;28;20030;-61
2022/03/05 00:10:25;;;;;;;27.43;16.77;;;;;;;-0.61;90.01;101990.59;4992516;28;20030;-61
2022/03/05 00:12:51;;;;;;;24.30;17.07;;;;;;;-0.66;90.86;101986.69;4991943;28;20037;-61
2022/03/05 00:15:18;;;;;;;25.73;16.67;;;;;;;-0.67;90.98;101987.47;4992214;28;20024;-60
2022/03/05 00:17:44;;;;;;;24.30;15.87;;;;;;;-0.70;90.98;101982.97;4991974;28;20026;-61
2022/03/05 00:20:10;;;;;;;28.30;18.57;;;;;;;-0.71;91.30;101988.81;4991608;28;20030;-60
2022/03/05 00:22:35;;;;;;;28.10;17.87;;;;;;;-0.74;91.26;101991.94;4991890;28;20026;-60
2022/03/05 00:25:01;;;;;;;28.67;18.57;;;;;;;-0.78;91.45;101988.97;4991908;28;20374;-61
2022/03/05 00:27:26;;;;;;;31.67;17.73;;;;;;;-0.81;92.18;101984.47;4991933;28;20490;-61
2022/03/05 00:29:52;;;;;;;29.03;18.50;;;;;;;-0.84;92.23;101996.91;4991202;28;20334;-61
2022/03/05 00:32:18;;;;;;;30.13;19.00;;;;;;;-0.86;92.20;101993.31;4991959;28;20097;-60
2022/03/05 00:34:44;;;;;;;27.23;18.07;;;;;;;-0.91;92.63;101990.34;4991941;28;20101;-60
2022/03/05 00:37:10;;;;;;;32.77;20.00;;;;;;;-0.94;92.99;101999.31;4991386;28;20157;-60
2022/03/05 00:39:35;;;;;;;29.90;18.87;;;;;;;-1.00;93.77;101992.88;4990226;28;20084;-61
2022/03/05 00:42:01;;;;;;;31.63;20.40;;;;;;;-1.04;93.88;101988.22;4991624;28;20026;-61
2022/03/05 00:44:28;;;;;;;29.83;19.20;;;;;;;-1.06;95.12;101989.72;4991368;28;20109;-61
2022/03/05 00:46:54;;;;;;;29.70;19.73;;;;;;;-1.06;94.73;101993.94;4991261;28;20274;-60
2022/03/05 00:49:19;;;;;;;30.70;19.57;;;;;;;-1.07;94.76;101985.41;4991026;28;20108;-60
2022/03/05 00:51:44;;;;;;;32.20;20.57;;;;;;;-1.06;95.01;101988.84;4991296;28;20049;-60
2022/03/05 00:54:10;;;;;;;32.70;21.53;;;;;;;-1.11;95.19;101986.75;4991267;28;20057;-61
2022/03/05 00:56:35;;;;;;;31.50;19.93;;;;;;;-1.09;94.94;101984.34;4991121;28;20033;-61
2022/03/05 00:59:00;;;;;;;32.97;21.03;;;;;;;-1.14;95.31;101983.91;4991087;28;20018;-60
2022/03/05 01:01:26;;;;;;;31.57;20.80;;;;;;;-1.14;95.73;101990.63;4990403;28;20148;-61
2022/03/05 01:03:51;;;;;;;34.73;22.43;;;;;;;-1.15;95.52;101984.63;4991087;28;20042;-60
2022/03/05 01:06:17;;;;;;;35.23;22.33;;;;;;;-1.17;95.56;101982.72;4990929;28;20029;-61
2022/03/05 01:08:42;;;;;;;33.87;22.37;;;;;;;-1.22;96.20;101977.16;4990959;28;20030;-59
2022/03/05 01:11:08;;;;;;;33.27;21.43;;;;;;;-1.22;95.57;101977.16;4990993;28;20033;-60
2022/03/05 01:13:37;;;;;;;34.13;21.93;;;;;;;-1.25;95.76;101977.75;4990790;28;20109;-60
2022/03/05 01:16:02;;;;;;;32.10;21.23;;;;;;;-1.25;95.95;101975.22;4990965;28;20077;-61
2022/03/05 01:18:28;;;;;;;39.03;22.60;;;;;;;-1.27;96.63;101973.25;4990658;28;20030;-61
2022/03/05 01:20:53;;;;;;;36.00;21.93;;;;;;;-1.29;96.88;101970.56;4990827;28;20486;-60
2022/03/05 01:23:18;;;;;;;33.70;21.97;;;;;;;-1.30;96.43;101978.06;4990880;28;20109;-60
2022/03/05 01:25:44;;;;;;;33.30;21.73;;;;;;;-1.34;96.43;101976.84;4991006;28;20149;-60
2022/03/05 01:28:09;;;;;;;33.33;21.77;;;;;;;-1.34;96.67;101979.38;4990683;28;20042;-61
2022/03/05 01:30:35;;;;;;;33.53;21.20;;;;;;;-1.34;96.77;101975.22;4990627;28;20086;-61
2022/03/05 01:33:00;;;;;;;35.67;21.57;;;;;;;-1.34;96.57;101979.38;4991018;28;20030;-59
2022/03/05 01:35:25;;;;;;;32.40;21.10;;;;;;;-1.37;96.72;101976.56;4990539;28;20426;-61
2022/03/05 01:37:51;;;;;;;34.83;22.57;;;;;;;-1.42;96.98;101977.75;4990526;28;20030;-60
2022/03/05 01:40:16;;;;;;;34.90;22.33;;;;;;;-1.45;97.53;101979.22;4990480;28;20027;-60
2022/03/05 01:42:42;;;;;;;40.30;23.50;;;;;;;-1.48;97.31;101978.03;4990587;28;20030;-61
2022/03/05 01:45:10;;;;;;;41.23;23.17;;;;;;;-1.52;97.78;101981.00;4990431;28;20497;-59
2022/03/05 01:47:37;;;;;;;36.73;21.90;;;;;;;-1.56;98.36;101979.81;4990459;28;20492;-59
2022/03/05 01:50:03;;;;;;;37.17;24.33;;;;;;;-1.63;98.66;101977.38;4990297;28;20050;-60
2022/03/05 01:52:28;;;;;;;38.53;24.57;;;;;;;-1.64;99.24;101973.06;4990308;28;20218;-61
2022/03/05 01:54:54;;;;;;;35.30;23.23;;;;;;;-1.62;98.81;101972.44;4990238;28;20041;-61
2022/03/05 01:57:19;;;;;;;37.83;23.23;;;;;;;-1.59;98.89;101982.03;4990489;28;20041;-60
2022/03/05 01:59:45;;;;;;;39.20;22.97;;;;;;;-1.63;98.99;101972.31;4989879;28;20051;-61
2022/03/05 02:02:10;;;;;;;36.20;23.07;;;;;;;-1.64;98.55;101980.69;4990076;28;20038;-60
2022/03/05 02:04:35;;;;;;;38.57;25.50;;;;;;;-1.67;98.61;101980.38;4990121;28;20042;-61
2022/03/05 02:07:01;;;;;;;38.40;24.07;;;;;;;-1.74;98.58;101977.22;4990183;28;20034;-60
2022/03/05 02:09:26;;;;;;;38.77;23.47;;;;;;;-1.78;98.71;101980.19;4990323;28;20025;-60
2022/03/05 02:11:52;;;;;;;39.43;25.23;;;;;;;-1.83;99.18;101977.19;4989709;28;20034;-60
2022/03/05 02:14:19;;;;;;;36.03;23.23;;;;;;;-1.85;99.97;101986.31;4990077;28;20203;-61
2022/03/05 02:16:45;;;;;;;39.43;23.43;;;;;;;-1.82;99.67;101981.53;4989998;28;20121;-61
2022/03/05 02:19:10;;;;;;;41.63;25.83;;;;;;;-1.79;99.53;101980.94;4990123;28;20101;-61
2022/03/05 02:21:36;;;;;;;38.40;24.43;;;;;;;-1.77;99.44;101983.63;4989726;28;20088;-61
2022/03/05 02:24:02;;;;;;;42.63;25.03;;;;;;;-1.79;99.24;101983.50;4988307;28;20129;-60
2022/03/05 02:26:27;;;;;;;37.97;24.20;;;;;;;-1.80;99.46;101979.16;4989759;28;20032;-61
2022/03/05 02:28:53;;;;;;;37.17;24.13;;;;;;;-1.81;99.44;101979.88;4989704;28;20030;-61
2022/03/05 02:31:18;;;;;;;39.73;25.17;;;;;;;-1.85;99.19;101967.59;4989950;28;20026;-61
2022/03/05 02:33:44;;;;;;;38.07;23.80;;;;;;;-1.90;100.00;101976.41;4990404;28;20033;-59
2022/03/05 02:36:10;;;;;;;38.03;23.73;;;;;;;-1.99;99.96;101973.84;4989618;28;20037;-60
2022/03/05 02:38:35;;;;;;;38.00;24.57;;;;;;;-2.09;100.00;101974.56;4989931;28;20030;-61
2022/03/05 02:41:01;;;;;;;43.23;25.53;;;;;;;-2.10;100.00;101972.75;4989748;28;20061;-59
2022/03/05 02:43:26;;;;;;;36.63;25.17;;;;;;;-2.17;100.00;101967.06;4989629;28;20489;-60
2022/03/05 02:45:52;;;;;;;41.40;25.00;;;;;;;-2.15;100.00;101968.84;4989690;28;20132;-60
2022/03/05 02:48:18;;;;;;;40.50;23.93;;;;;;;-2.18;100.00;101959.28;4990003;28;20027;-60
2022/03/05 02:50:45;;;;;;;40.67;25.27;;;;;;;-2.23;100.00;101956.25;4990075;28;20105;-60
2022/03/05 02:53:11;;;;;;;41.63;25.27;;;;;;;-2.27;100.00;101956.72;4989544;28;20030;-60
2022/03/05 02:55:36;;;;;;;40.60;25.10;;;;;;;-2.30;100.00;101958.91;4989667;28;20035;-59
2022/03/05 02:58:03;;;;;;;43.90;26.00;;;;;;;-2.28;100.00;101951.47;4989525;28;20471;-60
2022/03/05 03:00:28;;;;;;;44.93;26.77;;;;;;;-2.29;100.00;101953.09;4989515;28;20197;-61
2022/03/05 03:02:53;;;;;;;44.43;25.47;;;;;;;-2.30;100.00;101953.84;4989729;28;20449;-60
2022/03/05 03:05:19;;;;;;;38.83;25.43;;;;;;;-2.29;100.00;101955.66;4989691;28;20038;-60
2022/03/05 03:07:45;;;;;;;43.23;26.37;;;;;;;-2.29;100.00;101955.66;4989517;28;20027;-60
2022/03/05 03:10:12;;;;;;;39.80;25.07;;;;;;;-2.28;100.00;101957.44;4989678;28;20022;-60
2022/03/05 03:12:38;;;;;;;37.47;24.60;;;;;;;-2.26;100.00;101948.34;4989698;28;20026;-60
2022/03/05 03:15:08;;;;;;;41.70;25.70;;;;;;;-2.21;100.00;101954.78;4989755;28;20549;-61
2022/03/05 03:17:48;;;;;;;37.87;23.70;;;;;;;-2.16;100.00;101962.88;4989602;28;20081;-61
2022/03/05 03:20:17;;;;;;;39.57;24.67;;;;;;;-2.10;100.00;101962.59;4989621;28;20110;-60
2022/03/05 03:22:43;;;;;;;37.27;23.80;;;;;;;-2.09;100.00;101965.31;4989548;28;20511;-61
2022/03/05 03:25:10;;;;;;;41.63;24.83;;;;;;;-2.09;100.00;101951.69;4992474;28;20069;-60
2022/03/05 03:27:35;;;;;;;41.33;24.77;;;;;;;-2.12;100.00;101953.94;4992837;28;20034;-61
2022/03/05 03:30:01;;;;;;;41.50;26.67;;;;;;;-2.23;100.00;101956.25;4992760;28;20364;-60
2022/03/05 03:32:26;;;;;;;42.63;24.97;;;;;;;-2.33;100.00;101951.00;4992747;28;20084;-60
2022/03/05 03:34:51;;;;;;;43.93;26.90;;;;;;;-2.33;100.00;101953.53;4992659;28;20068;-60
2022/03/05 03:37:17;;;;;;;40.10;24.77;;;;;;;-2.33;100.00;101953.53;4992770;28;20034;-59
2022/03/05 03:39:42;;;;;;;40.80;24.90;;;;;;;-2.34;100.00;101944.13;4993120;28;20450;-61
2022/03/05 03:42:08;;;;;;;41.63;23.97;;;;;;;-2.34;100.00;101944.13;4992890;28;20038;-60
2022/03/05 03:44:33;;;;;;;36.63;22.33;;;;;;;-2.35;100.00;101947.38;4992602;28;20030;-61
2022/03/05 03:46:59;;;;;;;39.27;24.73;;;;;;;-2.43;100.00;101946.63;4992240;28;20058;-60
2022/03/05 03:49:24;;;;;;;42.83;24.53;;;;;;;-2.44;100.00;101953.34;4992486;28;20042;-60
2022/03/05 03:51:50;;;;;;;41.83;24.00;;;;;;;-2.44;100.00;101955.88;4990882;28;20072;-60
2022/03/05 03:54:16;;;;;;;37.57;24.27;;;;;;;-2.44;100.00;101950.78;4992491;28;20493;-60
2022/03/05 03:56:41;;;;;;;39.77;24.97;;;;;;;-2.45;100.00;101959.16;4992406;28;20030;-61
2022/03/05 03:59:07;;;;;;;40.03;23.27;;;;;;;-2.45;100.00;101959.16;4992208;28;20113;-60
2022/03/05 04:01:32;;;;;;;42.60;25.13;;;;;;;-2.49;100.00;101951.97;4992049;28;20335;-59
2022/03/05 04:03:57;;;;;;;39.20;24.53;;;;;;;-2.49;100.00;101954.50;4992656;28;20041;-59
2022/03/05 04:06:23;;;;;;;38.30;23.60;;;;;;;-2.50;100.00;101965.38;4992172;28;20386;-60
2022/03/05 04:08:48;;;;;;;39.93;24.80;;;;;;;-2.49;100.00;101963.75;4992277;28;20467;-60
2022/03/05 04:11:19;;;;;;;37.63;23.93;;;;;;;-2.54;100.00;101963.28;4992018;28;20022;-59
2022/03/05 04:13:48;;;;;;;39.67;25.25;;;;;;;-2.60;100.00;101963.56;4992195;28;20426;-60
2022/03/05 04:16:14;;;;;;;38.87;25.13;;;;;;;-2.62;100.00;101964.13;4991842;28;20026;-60
2022/03/05 04:18:39;;;;;;;36.03;21.97;;;;;;;-2.64;100.00;101960.53;4990576;28;20030;-60
2022/03/05 04:21:07;;;;;;;39.00;22.80;;;;;;;-2.67;100.00;101956.94;4991577;28;20045;-60
2022/03/05 04:23:33;;;;;;;39.00;23.83;;;;;;;-2.70;100.00;101956.59;4992074;28;20022;-60
2022/03/05 04:25:59;;;;;;;38.13;23.43;;;;;;;-2.73;100.00;101953.75;4991899;28;20031;-61
2022/03/05 04:28:24;;;;;;;38.43;23.90;;;;;;;-2.80;100.00;101953.84;4992038;28;20335;-59
2022/03/05 04:30:50;;;;;;;38.53;24.50;;;;;;;-2.88;100.00;101950.53;4991697;28;20030;-59
2022/03/05 04:33:15;;;;;;;36.40;23.23;;;;;;;-2.90;100.00;101957.97;4991626;28;20033;-60
2022/03/05 04:35:40;;;;;;;37.57;25.13;;;;;;;-2.91;100.00;101961.25;4991502;28;20109;-60
2022/03/05 04:38:06;;;;;;;38.83;24.30;;;;;;;-2.90;100.00;101963.03;4991392;28;20041;-60
2022/03/05 04:40:31;;;;;;;39.80;25.37;;;;;;;-2.88;100.00;101967.41;4991340;28;20026;-60
2022/03/05 04:42:57;;;;;;;44.07;25.47;;;;;;;-2.88;100.00;101969.94;4991367;28;20023;-60
2022/03/05 04:45:22;;;;;;;37.70;24.50;;;;;;;-2.86;100.00;101968.47;4991616;28;20222;-60
2022/03/05 04:47:48;;;;;;;38.53;23.43;;;;;;;-2.85;100.00;101977.84;4991629;28;20026;-60
2022/03/05 04:50:13;;;;;;;39.03;23.97;;;;;;;-2.92;100.00;101972.16;4991208;28;20057;-60
2022/03/05 04:52:39;;;;;;;37.07;23.70;;;;;;;-2.96;100.00;101964.03;4991412;28;20066;-59
2022/03/05 04:55:06;;;;;;;38.43;23.73;;;;;;;-2.96;100.00;101970.03;4991070;28;20128;-60
2022/03/05 04:57:32;;;;;;;42.60;24.20;;;;;;;-2.95;100.00;101969.28;4991567;28;20028;-59
2022/03/05 04:59:57;;;;;;;35.13;22.50;;;;;;;-2.94;100.00;101966.00;4991092;28;20046;-59
2022/03/05 05:02:23;;;;;;;42.07;25.23;;;;;;;-2.93;100.00;101972.88;4991414;28;20519;-60
2022/03/05 05:04:48;;;;;;;39.83;24.73;;;;;;;-2.91;100.00;101973.03;4991094;28;20026;-60
2022/03/05 05:07:14;;;;;;;40.10;24.13;;;;;;;-2.90;100.00;101978.25;4990754;28;20101;-60
2022/03/05 05:09:40;;;;;;;40.33;23.60;;;;;;;-2.91;100.00;101980.63;4991167;28;20026;-60
2022/03/05 05:12:06;;;;;;;40.67;24.50;;;;;;;-2.94;100.00;101981.25;4990740;28;20077;-59
2022/03/05 05:14:32;;;;;;;39.93;23.40;;;;;;;-2.98;100.00;101979.09;4990554;28;20034;-60
2022/03/05 05:16:57;;;;;;;43.27;23.23;;;;;;;-3.05;100.00;101986.81;4990617;28;20026;-60
2022/03/05 05:19:27;;;;;;;42.77;24.80;;;;;;;-3.10;100.00;101980.34;4990521;28;20227;-60
2022/03/05 05:21:57;;;;;;;41.80;25.07;;;;;;;-3.12;100.00;101980.19;4990664;28;20105;-60
2022/03/05 05:24:28;;;;;;;43.70;26.00;;;;;;;-3.10;100.00;101982.88;4991107;28;20262;-60
2022/03/05 05:26:54;;;;;;;44.67;24.92;;;;;;;-3.10;100.00;101985.41;4990751;28;20273;-60
2022/03/05 05:29:19;;;;;;;40.23;24.20;;;;;;;-3.14;100.00;101985.09;4991146;28;20038;-60
2022/03/05 05:31:45;;;;;;;39.03;23.40;;;;;;;-3.14;100.00;101987.66;4991112;28;20077;-60
2022/03/05 05:34:10;;;;;;;41.00;24.63;;;;;;;-3.18;100.00;101990.56;4990547;28;20029;-60
2022/03/05 05:36:38;;;;;;;46.80;25.87;;;;;;;-3.20;100.00;101996.25;4990907;28;20034;-60
2022/03/05 05:39:08;;;;;;;42.23;25.20;;;;;;;-3.23;100.00;102001.88;4990478;28;20080;-60
2022/03/05 05:41:35;;;;;;;39.53;24.47;;;;;;;-3.26;100.00;102004.09;4990608;28;20089;-60
2022/03/05 05:44:02;;;;;;;41.90;24.77;;;;;;;-3.27;100.00;102012.41;4990658;28;20026;-60
2022/03/05 05:46:27;;;;;;;45.30;25.03;;;;;;;-3.26;100.00;102004.09;4990151;28;20030;-60
2022/03/05 05:48:53;;;;;;;43.57;25.33;;;;;;;-3.27;100.00;102009.88;4990199;28;20541;-58
2022/03/05 05:51:18;;;;;;;41.93;23.97;;;;;;;-3.35;100.00;102011.63;4990208;28;20306;-60
2022/03/05 05:53:44;;;;;;;44.13;25.33;;;;;;;-3.33;100.00;102009.25;4990126;28;20038;-60
2022/03/05 05:56:09;;;;;;;48.53;26.73;;;;;;;-3.36;100.00;102008.91;4990180;28;20084;-59
2022/03/05 05:58:35;;;;;;;46.70;27.23;;;;;;;-3.40;100.00;102008.56;4989975;28;20045;-60
2022/03/05 06:01:00;;;;;;;49.13;26.50;;;;;;;-3.38;100.00;102019.78;4988508;28;20086;-61
2022/03/05 06:03:25;;;;;;;46.10;25.90;;;;;;;-3.39;100.00;102014.53;4988329;28;20034;-59
2022/03/05 06:05:51;;;;;;;41.33;24.67;;;;;;;-3.36;100.00;102019.06;4987850;28;20026;-60
2022/03/05 06:08:16;;;;;;;46.90;25.97;;;;;;;-3.37;100.00;102013.09;4987108;28;20030;-60
2022/03/05 06:10:41;;;;;;;42.20;24.40;;;;;;;-3.38;100.00;102008.72;4987260;28;20037;-57
2022/03/05 06:13:07;;;;;;;48.33;25.87;;;;;;;-3.38;100.00;102008.72;4987615;28;20046;-59
2022/03/05 06:15:32;;;;;;;46.83;25.20;;;;;;;-3.39;100.00;102010.38;4990129;28;20180;-59
2022/03/05 06:17:57;;;;;;;43.10;23.77;;;;;;;-3.42;100.00;102006.63;4989944;28;20041;-60
2022/03/05 06:20:24;;;;;;;44.13;25.37;;;;;;;-3.43;100.00;102013.31;4989791;28;20037;-60
2022/03/05 06:22:49;;;;;;;47.63;25.80;;;;;;;-3.47;100.00;102010.31;4989907;28;20106;-59
2022/03/05 06:25:17;;;;;;;46.93;25.23;;;;;;;-3.48;100.00;102006.84;4989834;28;20470;-59
2022/03/05 06:27:43;;;;;;;44.87;24.87;;;;;;;-3.45;100.00;102009.72;4990172;28;20034;-60
2022/03/05 06:30:10;;;;;;;45.20;25.43;;;;;;;-3.45;100.00;102009.72;4989921;28;20232;-60
2022/03/05 06:32:36;;;;;;;40.77;24.87;;;;;;;-3.41;100.00;102011.84;4989619;28;20022;-59
2022/03/05 06:35:01;;;;;;;41.37;25.03;;;;;;;-3.38;100.00;102012.16;4989581;28;20118;-58
2022/03/05 06:37:27;;;;;;;44.13;24.33;;;;;;;-3.33;100.00;102019.38;4990229;28;20069;-60
2022/03/05 06:39:52;;;;;;;48.60;26.83;;;;;;;-3.32;100.00;102018.63;4989824;28;20041;-59
2022/03/05 06:42:17;;;;;;;44.23;25.40;;;;;;;-3.31;100.00;102016.25;4989766;28;20034;-59
2022/03/05 06:44:43;;;;;;;47.57;25.23;;;;;;;-3.32;100.00;102011.03;4989600;28;20031;-60
2022/03/05 06:47:08;;;;;;;44.80;24.17;;;;;;;-3.37;100.00;102013.09;4989794;28;20061;-60
2022/03/05 06:49:33;;;;;;;50.57;26.03;;;;;;;-3.39;100.00;102014.53;4989550;28;20022;-60
2022/03/05 06:51:59;;;;;;;46.63;25.47;;;;;;;-3.37;100.00;102010.53;4991267;28;20018;-60
2022/03/05 06:54:25;;;;;;;46.13;25.67;;;;;;;-3.32;100.00;102021.16;4989261;28;20026;-59
2022/03/05 06:56:51;;;;;;;44.40;25.37;;;;;;;-3.31;100.00;102028.94;4989931;28;20464;-61
2022/03/05 06:59:16;;;;;;;45.93;26.17;;;;;;;-3.28;100.00;102023.31;4995500;28;20096;-60
2022/03/05 07:01:41;;;;;;;45.03;25.43;;;;;;;-3.22;100.00;102021.41;4992193;28;20043;-60
2022/03/05 07:04:07;;;;;;;42.63;24.17;;;;;;;-3.17;100.00;102030.44;4992138;28;20474;-59
2022/03/05 07:06:32;;;;;;;42.87;24.10;;;;;;;-3.11;100.00;102036.91;4992143;28;20030;-60
2022/03/05 07:08:57;;;;;;;42.43;24.37;;;;;;;-3.08;100.00;102043.22;4992496;28;20373;-60
2022/03/05 07:11:23;;;;;;;42.13;23.80;;;;;;;-3.02;100.00;102040.41;4997006;28;20026;-60
2022/03/05 07:13:48;;;;;;;47.60;26.47;;;;;;;-2.92;100.00;102040.66;4992865;28;20348;-60
2022/03/05 07:16:13;;;;;;;46.73;26.67;;;;;;;-2.80;100.00;102045.22;4995541;28;20030;-59
2022/03/05 07:18:40;;;;;;;56.63;29.50;;;;;;;-2.74;100.00;102045.88;5000890;28;20056;-60
2022/03/05 07:21:05;;;;;;;67.63;34.30;;;;;;;-2.64;100.00;102044.31;4992038;28;20379;-60
2022/03/05 07:23:31;;;;;;;72.30;34.20;;;;;;;-2.47;100.00;102054.59;4992261;28;20113;-60
2022/03/05 07:25:56;;;;;;;68.77;34.87;;;;;;;-2.24;100.00;102047.53;4992357;28;20023;-60
2022/03/05 07:28:21;;;;;;;70.53;36.50;;;;;;;-2.21;100.00;102056.38;4991734;28;20050;-60
2022/03/05 07:30:47;;;;;;;64.17;34.93;;;;;;;-2.17;100.00;102055.06;4994849;28;20022;-60
2022/03/05 07:33:13;;;;;;;60.73;32.40;;;;;;;-1.93;100.00;102048.16;4992251;28;20027;-60
2022/03/05 07:35:39;;;;;;;59.80;31.37;;;;;;;-1.57;100.00;102054.28;4991913;28;20054;-59
2022/03/05 07:38:04;;;;;;;45.57;26.30;;;;;;;-1.24;98.65;102055.88;4994433;28;20054;-60
2022/03/05 07:40:29;;;;;;;43.93;25.70;;;;;;;-0.95;97.35;102053.53;4992446;28;20053;-61
2022/03/05 07:42:55;;;;;;;40.60;24.87;;;;;;;-0.93;96.32;102047.81;4991774;28;20431;-59
2022/03/05 07:45:20;;;;;;;42.60;24.50;;;;;;;-0.64;95.20;102046.31;4991782;28;20030;-59
2022/03/05 07:47:46;;;;;;;41.30;24.63;;;;;;;-0.15;93.42;102050.16;4991530;28;20048;-60
2022/03/05 07:50:11;;;;;;;42.27;24.77;;;;;;;0.29;90.25;102048.22;4994559;28;20025;-60
2022/03/05 07:52:36;;;;;;;43.67;25.57;;;;;;;0.66;89.44;102041.41;4992020;28;20023;-60
2022/03/05 07:55:02;;;;;;;43.73;26.13;;;;;;;0.99;88.14;102046.88;4997499;28;20056;-61
2022/03/05 07:57:28;;;;;;;37.33;24.17;;;;;;;1.11;85.69;102052.22;4998790;28;20072;-59
2022/03/05 07:59:53;;;;;;;42.77;23.80;;;;;;;1.10;86.57;102045.28;4999488;28;20046;-60
2022/03/05 08:02:18;;;;;;;38.57;24.43;;;;;;;1.32;85.65;102049.78;4991060;28;20084;-60
2022/03/05 08:04:47;;;;;;;46.50;27.17;;;;;;;1.29;86.50;102058.06;4994491;28;20034;-60
2022/03/05 08:07:13;;;;;;;41.90;23.53;;;;;;;1.52;84.26;102059.22;4992113;28;20018;-60
2022/03/05 08:09:39;;;;;;;40.43;25.43;;;;;;;1.60;84.74;102065.00;4991287;28;20473;-60
2022/03/05 08:12:05;;;;;;;37.97;23.23;;;;;;;1.88;84.61;102067.44;4991082;28;20557;-60
2022/03/05 08:14:31;;;;;;;41.37;24.63;;;;;;;2.16;82.24;102069.81;4991882;28;20109;-61
2022/03/05 08:16:56;;;;;;;42.40;25.77;;;;;;;2.12;81.50;102072.00;4991977;28;20506;-61
2022/03/05 08:19:21;;;;;;;39.33;24.43;;;;;;;2.32;79.64;102072.81;4996548;28;20104;-61
2022/03/05 08:21:47;;;;;;;40.10;24.90;;;;;;;2.53;81.47;102076.28;4998628;28;20246;-60
2022/03/05 08:24:12;;;;;;;37.73;23.40;;;;;;;2.73;79.43;102074.53;4990792;28;20029;-59
2022/03/05 08:26:38;;;;;;;42.10;25.70;;;;;;;3.07;77.26;102077.34;4991763;28;20034;-60
2022/03/05 08:29:04;;;;;;;42.73;24.23;;;;;;;3.24;76.18;102070.13;4991792;28;20041;-60
2022/03/05 08:31:31;;;;;;;41.30;24.93;;;;;;;3.42;76.51;102072.41;4991756;28;20327;-60
2022/03/05 08:33:58;;;;;;;42.63;26.00;;;;;;;3.50;75.49;102071.34;4991442;28;20370;-60
2022/03/05 08:36:23;;;;;;;36.60;23.57;;;;;;;3.80;72.63;102069.44;4992811;28;20029;-59
2022/03/05 08:38:49;;;;;;;41.00;25.77;;;;;;;3.84;72.43;102074.06;5000251;28;20026;-60
2022/03/05 08:41:14;;;;;;;42.97;25.17;;;;;;;4.10;72.68;102074.34;4990488;28;20485;-60
2022/03/05 08:43:39;;;;;;;40.97;25.10;;;;;;;4.40;72.30;102079.16;4990971;28;20386;-60
2022/03/05 08:46:06;;;;;;;40.30;24.03;;;;;;;4.51;70.78;102075.75;4990700;28;20027;-61
2022/03/05 08:48:32;;;;;;;41.67;24.30;;;;;;;4.42;70.03;102077.59;4991022;28;20037;-61
2022/03/05 08:50:57;;;;;;;36.37;23.10;;;;;;;4.52;69.44;102080.09;4990284;28;20022;-61
2022/03/05 08:53:23;;;;;;;37.60;25.43;;;;;;;4.62;68.98;102075.66;4989993;28;20018;-60
2022/03/05 08:55:48;;;;;;;38.37;24.80;;;;;;;4.57;69.46;102071.06;4990331;28;20061;-61
2022/03/05 08:58:13;;;;;;;40.03;25.13;;;;;;;4.48;69.55;102072.91;4990255;28;20022;-61
2022/03/05 09:00:39;;;;;;;38.40;23.87;;;;;;;4.50;69.71;102070.47;4989336;28;20073;-61
2022/03/05 09:03:04;;;;;;;43.43;26.50;;;;;;;4.70;70.18;102079.69;4991820;28;20053;-61
2022/03/05 09:05:29;;;;;;;41.57;25.07;;;;;;;4.74;69.07;102062.84;4989154;28;20037;-61
2022/03/05 09:07:55;;;;;;;39.27;25.17;;;;;;;4.74;69.43;102073.13;4989557;28;20116;-61
2022/03/05 09:10:20;;;;;;;37.97;24.50;;;;;;;4.68;69.05;102070.97;4989578;28;20116;-61
2022/03/05 09:12:45;;;;;;;40.88;24.42;;;;;;;5.31;69.01;102058.47;4990388;28;20038;-59
2022/03/05 09:15:11;;;;;;;36.72;24.55;;;;;;;5.52;67.77;102061.69;4989821;28;20029;-61
2022/03/05 09:17:36;;;;;;;39.45;25.08;;;;;;;5.57;65.21;102061.16;4990640;28;20105;-60
2022/03/05 09:20:02;;;;;;;39.08;24.67;;;;;;;5.65;64.85;102062.59;4990034;28;20058;-61
2022/03/05 09:22:28;;;;;;;40.53;24.33;;;;;;;5.86;63.92;102059.78;4989488;28;20108;-61
2022/03/05 09:24:53;;;;;;;36.13;23.73;;;;;;;5.85;63.67;102060.53;4990539;28;20157;-61
2022/03/05 09:27:19;;;;;;;36.60;24.83;;;;;;;5.80;63.87;102065.38;4990642;28;20041;-61
2022/03/05 09:29:45;;;;;;;37.10;24.20;;;;;;;5.87;64.70;102058.97;4990562;28;20033;-61
2022/03/05 09:32:10;;;;;;;37.25;24.45;;;;;;;5.73;62.84;102061.47;4990541;28;20034;-61
2022/03/05 09:34:36;;;;;;;40.10;26.15;;;;;;;5.91;65.04;102050.69;4990432;28;20053;-61
2022/03/05 09:37:02;;;;;;;39.45;26.15;;;;;;;5.96;63.71;102056.16;4990185;28;20081;-61
2022/03/05 09:39:27;;;;;;;34.30;23.75;;;;;;;6.00;60.38;102051.34;4990566;28;20034;-61
2022/03/05 09:41:53;;;;;;;33.17;23.45;;;;;;;5.84;60.88;102048.47;4990435;28;20093;-61
2022/03/05 09:44:19;;;;;;;41.75;26.42;;;;;;;5.77;60.89;102053.19;4989954;28;20483;-62
2022/03/05 09:46:45;;;;;;;35.30;24.67;;;;;;;5.76;61.49;102055.66;4990831;28;20033;-61
2022/03/05 09:49:11;;;;;;;36.53;24.50;;;;;;;5.73;61.19;102051.19;4990272;28;20029;-60
2022/03/05 09:51:37;;;;;;;36.25;24.70;;;;;;;5.77;61.24;102057.44;4990122;28;20022;-61
2022/03/05 09:54:03;;;;;;;38.40;24.77;;;;;;;5.68;61.69;102055.13;4990021;28;20057;-60
2022/03/05 09:56:28;;;;;;;35.50;23.48;;;;;;;5.57;60.96;102050.88;4990036;28;20447;-61
2022/03/05 09:58:56;;;;;;;35.90;24.25;;;;;;;5.50;61.08;102049.53;4990048;28;20027;-61
2022/03/05 10:01:21;;;;;;;36.70;23.23;;;;;;;5.50;61.19;102054.69;4989761;28;20057;-61
2022/03/05 10:03:49;;;;;;;35.20;23.85;;;;;;;5.39;61.74;102053.91;4990075;28;20387;-62
2022/03/05 10:06:20;;;;;;;34.17;24.67;;;;;;;5.51;64.40;102059.94;4989700;28;20030;-61
2022/03/05 10:08:46;;;;;;;33.13;24.00;;;;;;;5.46;61.98;102056.13;4990164;28;20030;-61
2022/03/05 10:11:12;;;;;;;35.70;23.38;;;;;;;5.56;62.85;102057.69;4990401;28;20018;-61
2022/03/05 10:13:39;;;;;;;35.13;23.63;;;;;;;5.63;62.21;102059.03;4989614;28;20018;-61
2022/03/05 10:16:29;;;;;;;34.97;25.27;;;;;;;5.64;61.71;102050.53;4989908;28;20041;-61
2022/03/05 10:18:55;;;;;;;36.38;23.42;;;;;;;5.62;61.55;102052.09;4989546;28;20069;-61
2022/03/05 10:21:31;;;;;;;35.72;24.02;;;;;;;5.57;62.34;102058.59;4989572;28;20022;-62
2022/03/05 10:24:08;;;;;;;36.58;23.63;;;;;;;5.48;61.89;102054.56;4989812;28;20084;-61
2022/03/05 10:26:53;;;;;;;34.00;22.67;;;;;;;5.36;61.67;102049.41;4989907;28;20058;-60
2022/03/05 10:29:24;;;;;;;34.90;23.80;;;;;;;5.44;62.77;102057.69;4990224;28;20585;-62
2022/03/05 10:32:03;;;;;;;37.83;25.02;;;;;;;5.43;62.18;102050.78;4988738;28;20037;-60
2022/03/05 10:34:52;;;;;;;40.47;23.95;;;;;;;5.51;61.95;102053.88;4994261;28;20049;-61
2022/03/05 10:37:19;;;;;;;35.45;24.27;;;;;;;5.67;61.95;102057.59;4993621;28;20026;-60
2022/03/05 10:39:45;;;;;;;33.50;23.38;;;;;;;5.71;62.06;102057.00;4993671;28;20398;-60
2022/03/05 10:42:18;;;;;;;35.35;23.60;;;;;;;5.81;62.13;102054.28;4993712;28;20126;-61
2022/03/05 10:44:59;;;;;;;34.58;23.38;;;;;;;5.90;61.62;102061.75;4993492;28;20101;-61
2022/03/05 10:47:24;;;;;;;35.22;23.33;;;;;;;5.92;60.93;102049.03;4993772;28;20034;-61
2022/03/05 10:49:49;;;;;;;36.90;23.42;;;;;;;6.07;61.74;102056.94;4993486;28;20034;-61
2022/03/05 10:52:15;;;;;;;32.85;24.23;;;;;;;6.16;60.67;102052.44;4993149;28;20026;-61
2022/03/05 10:54:42;;;;;;;35.90;24.40;;;;;;;6.30;60.48;102047.34;4993429;28;20058;-61
2022/03/05 10:57:14;;;;;;;31.25;22.00;;;;;;;6.39;59.07;102054.81;4993311;28;20026;-61
2022/03/05 10:59:40;;;;;;;;;;;;;;;6.46;58.87;102057.94;4993916;28;20026;-62
2022/03/05 11:02:07;;;;;;;34.83;23.70;;;;;;;6.58;58.53;102057.84;4993259;28;19918;-61
2022/03/05 11:04:39;;;;;;;34.25;24.05;;;;;;;6.58;58.57;102054.41;4993371;28;20033;-61